Time;durP1;ratioP1;P1;durP2;ratioP2;P2;SDS_P1;SDS_P2;PMS_P1;PMS_P2;Temp;Humidity;BMP_temperature;BMP_pressure;BME280_temperature;BME280_humidity;BME280_pressure;Samples;Min_cycle;Max_cycle;Signal;HPM_P1;HPM_P2
2023/04/29 00:00:42;;;;;;;11.77;8.50;;;7.70;1.00;;;;;;5072357;28;20171;-69
2023/04/29 00:03:08;;;;;;;9.23;8.43;;;7.60;1.00;;;;;;5055694;28;20191;-70
2023/04/29 00:05:34;;;;;;;10.50;8.50;;;7.60;1.00;;;;;;5093888;28;20192;-69
2023/04/29 00:08:00;;;;;;;11.10;7.50;;;7.60;1.00;;;;;;5091886;28;20154;-69
2023/04/29 00:10:26;;;;;;;28.07;10.47;;;7.60;1.00;;;;;;5072978;28;20424;-69
2023/04/29 00:12:51;;;;;;;10.77;8.77;;;7.60;1.00;;;;;;5073482;28;20227;-69
2023/04/29 00:15:17;;;;;;;7.87;7.07;;;7.60;1.00;;;;;;5090254;28;20602;-70
2023/04/29 00:17:43;;;;;;;9.63;8.63;;;7.50;1.00;;;;;;5082677;28;20174;-69
2023/04/29 00:20:10;;;;;;;10.43;8.13;;;7.50;1.00;;;;;;5072096;28;20196;-69
2023/04/29 00:22:36;;;;;;;13.97;9.23;;;7.50;1.00;;;;;;5073471;28;20419;-69
2023/04/29 00:25:03;;;;;;;13.47;9.83;;;7.50;1.00;;;;;;5090119;28;20905;-69
2023/04/29 00:27:32;;;;;;;11.33;8.17;;;7.50;1.00;;;;;;5091827;28;20485;-69
2023/04/29 00:29:57;;;;;;;10.47;8.90;;;7.60;1.00;;;;;;5093122;28;20462;-70
2023/04/29 00:32:23;;;;;;;8.60;7.70;;;7.50;1.00;;;;;;5055214;28;20460;-69
2023/04/29 00:34:49;;;;;;;10.27;7.70;;;7.50;1.00;;;;;;5072928;28;20174;-69
2023/04/29 00:37:15;;;;;;;17.37;7.10;;;7.50;1.00;;;;;;5087466;28;20197;-69
2023/04/29 00:39:43;;;;;;;11.20;7.90;;;7.50;1.00;;;;;;5073534;28;20312;-69
2023/04/29 00:42:09;;;;;;;10.40;8.50;;;7.50;1.00;;;;;;5089223;28;20439;-70
2023/04/29 00:44:35;;;;;;;11.37;8.03;;;7.50;1.00;;;;;;5097320;28;20396;-70
2023/04/29 00:47:00;;;;;;;9.17;7.50;;;7.50;1.00;;;;;;5079320;28;20428;-70
2023/04/29 00:49:26;;;;;;;10.40;8.50;;;7.40;1.00;;;;;;5077115;28;20305;-70
2023/04/29 00:51:55;;;;;;;9.63;8.53;;;7.40;1.00;;;;;;5074580;28;20555;-70
2023/04/29 00:54:21;;;;;;;10.70;7.60;;;7.30;1.00;;;;;;5077384;28;20491;-70
2023/04/29 00:56:48;;;;;;;8.70;7.80;;;7.30;1.00;;;;;;5075900;28;20452;-69
2023/04/29 00:59:15;;;;;;;13.57;8.50;;;7.40;1.00;;;;;;5077034;28;20890;-70
2023/04/29 01:01:43;;;;;;;12.03;8.07;;;7.40;1.00;;;;;;5075914;28;20420;-70
2023/04/29 01:04:09;;;;;;;8.70;7.60;;;7.40;1.00;;;;;;5076874;28;20400;-70
2023/04/29 01:06:42;;;;;;;10.17;8.60;;;7.40;1.00;;;;;;5073854;28;20461;-69
2023/04/29 01:09:42;;;;;;;12.77;8.73;;;7.40;1.00;;;;;;5082436;28;20216;-70
2023/04/29 01:12:28;;;;;;;10.90;9.30;;;7.30;1.00;;;;;;5075119;28;20464;-70
2023/04/29 01:15:21;;;;;;;16.30;9.20;;;7.30;1.00;;;;;;5076675;28;20393;-70
2023/04/29 01:18:37;;;;;;;8.47;7.40;;;7.40;1.00;;;;;;5056651;28;20412;-70
2023/04/29 01:21:03;;;;;;;8.73;7.83;;;7.40;1.00;;;;;;4967332;28;20459;-69
2023/04/29 01:23:29;;;;;;;12.80;7.57;;;7.40;1.00;;;;;;4995562;28;20817;-70
2023/04/29 01:25:56;;;;;;;8.97;7.87;;;7.40;1.00;;;;;;5032895;28;20197;-69
2023/04/29 01:28:49;;;;;;;13.67;8.27;;;7.40;1.00;;;;;;5096723;28;20410;-69
2023/04/29 01:31:24;;;;;;;15.00;8.10;;;7.40;1.00;;;;;;5086137;28;20502;-69
2023/04/29 01:34:09;;;;;;;10.87;7.23;;;7.40;1.00;;;;;;5094274;28;20442;-70
2023/04/29 01:37:06;;;;;;;17.10;8.00;;;7.40;1.00;;;;;;5095768;28;20760;-69
2023/04/29 01:39:40;;;;;;;15.57;8.07;;;7.40;1.00;;;;;;5086638;28;20409;-69
2023/04/29 01:42:31;;;;;;;9.83;7.90;;;7.40;1.00;;;;;;5075962;28;20912;-68
2023/04/29 01:45:01;;;;;;;9.10;8.13;;;7.30;1.00;;;;;;5088279;28;20411;-69
2023/04/29 01:47:28;;;;;;;11.00;8.10;;;7.30;1.00;;;;;;5087266;28;20424;-69
2023/04/29 01:49:54;;;;;;;10.40;8.10;;;7.30;1.00;;;;;;5086478;28;20412;-69
2023/04/29 01:52:20;;;;;;;12.90;7.80;;;7.30;1.00;;;;;;5075569;28;20463;-69
2023/04/29 01:54:46;;;;;;;11.37;7.87;;;7.20;1.00;;;;;;5074906;28;20196;-69
2023/04/29 01:57:11;;;;;;;13.43;7.60;;;7.20;1.00;;;;;;5076029;28;20405;-69
2023/04/29 01:59:37;;;;;;;15.30;7.60;;;7.10;1.00;;;;;;5080139;28;20493;-69
2023/04/29 02:02:03;;;;;;;9.53;7.23;;;7.10;1.00;;;;;;5055456;28;20194;-69
2023/04/29 02:04:32;;;;;;;7.13;6.50;;;7.00;1.00;;;;;;5077077;28;20681;-69
2023/04/29 02:06:58;;;;;;;9.13;7.10;;;7.00;1.00;;;;;;5075097;28;20163;-69
2023/04/29 02:09:24;;;;;;;10.97;7.03;;;6.90;1.00;;;;;;5083862;28;20932;-69
2023/04/29 02:11:52;;;;;;;7.00;6.30;;;6.90;1.00;;;;;;5095088;28;20470;-69
2023/04/29 02:14:18;;;;;;;8.90;7.10;;;6.80;1.00;;;;;;5089013;28;20283;-70
2023/04/29 02:16:44;;;;;;;11.07;7.20;;;6.80;1.00;;;;;;5068985;28;20429;-69
2023/04/29 02:19:10;;;;;;;9.10;6.50;;;6.70;1.00;;;;;;5068927;28;20162;-68
2023/04/29 02:21:36;;;;;;;10.30;7.20;;;6.60;1.00;;;;;;5074885;28;20794;-69
2023/04/29 02:24:02;;;;;;;9.43;6.70;;;6.60;1.00;;;;;;5082120;28;20492;-69
2023/04/29 02:26:27;;;;;;;8.00;6.73;;;6.50;1.00;;;;;;5095888;28;20195;-69
2023/04/29 02:28:53;;;;;;;9.20;7.37;;;6.40;1.00;;;;;;5092282;28;20425;-69
2023/04/29 02:31:19;;;;;;;7.00;6.40;;;6.40;1.00;;;;;;5073429;28;20694;-69
2023/04/29 02:33:45;;;;;;;7.73;6.90;;;6.40;1.00;;;;;;5074997;28;20429;-69
2023/04/29 02:36:10;;;;;;;11.10;6.90;;;6.40;1.00;;;;;;5075139;28;20651;-69
2023/04/29 02:38:36;;;;;;;7.63;6.90;;;6.40;1.00;;;;;;5075230;28;20166;-69
2023/04/29 02:41:02;;;;;;;8.17;6.43;;;6.40;1.00;;;;;;5073807;28;20170;-69
2023/04/29 02:43:29;;;;;;;7.17;6.47;;;6.50;1.00;;;;;;5074719;28;20423;-69
2023/04/29 02:45:55;;;;;;;8.13;6.40;;;6.40;1.00;;;;;;5074089;28;20177;-68
2023/04/29 02:48:21;;;;;;;9.00;7.03;;;6.30;1.00;;;;;;5075028;28;20408;-69
2023/04/29 02:50:47;;;;;;;14.70;8.07;;;6.40;1.00;;;;;;5075111;28;20419;-68
2023/04/29 02:53:12;;;;;;;8.50;7.30;;;6.40;1.00;;;;;;5074869;28;20208;-69
2023/04/29 02:55:38;;;;;;;7.47;6.77;;;6.40;1.00;;;;;;5076396;28;20631;-69
2023/04/29 02:58:04;;;;;;;8.33;6.73;;;6.40;1.00;;;;;;5095032;28;20196;-69
2023/04/29 03:00:32;;;;;;;19.50;8.93;;;6.50;1.00;;;;;;5060680;28;20269;-69
2023/04/29 03:02:57;;;;;;;9.30;7.90;;;6.40;1.00;;;;;;5054347;28;20555;-70
2023/04/29 03:05:23;;;;;;;10.33;7.70;;;6.50;1.00;;;;;;5054089;28;20525;-69
2023/04/29 03:07:49;;;;;;;9.07;7.53;;;6.60;1.00;;;;;;5079589;28;20585;-69
2023/04/29 03:10:14;;;;;;;9.63;8.50;;;6.60;1.00;;;;;;5073505;28;20578;-69
2023/04/29 03:12:40;;;;;;;10.20;6.53;;;6.60;1.00;;;;;;5055981;28;20682;-69
2023/04/29 03:15:06;;;;;;;9.63;7.20;;;6.60;1.00;;;;;;5074779;28;20162;-69
2023/04/29 03:17:33;;;;;;;7.83;7.13;;;6.60;1.00;;;;;;5074506;28;20719;-69
2023/04/29 03:19:59;;;;;;;9.93;7.37;;;6.60;1.00;;;;;;5073442;28;20942;-69
2023/04/29 03:22:25;;;;;;;8.17;7.13;;;6.70;1.00;;;;;;5077142;28;20444;-68
2023/04/29 03:24:51;;;;;;;11.30;8.37;;;6.70;1.00;;;;;;5073890;28;20174;-69
2023/04/29 03:27:16;;;;;;;9.57;7.80;;;6.80;1.00;;;;;;5073206;28;20519;-69
2023/04/29 03:29:42;;;;;;;9.03;6.93;;;6.80;1.00;;;;;;5074350;28;20178;-69
2023/04/29 03:32:08;;;;;;;8.70;7.17;;;6.90;1.00;;;;;;5072690;28;20336;-69
2023/04/29 03:34:33;;;;;;;11.30;8.50;;;6.80;1.00;;;;;;5074230;28;20166;-69
2023/04/29 03:37:00;;;;;;;8.90;7.80;;;6.90;1.00;;;;;;5071929;28;20794;-69
2023/04/29 03:39:30;;;;;;;15.73;7.60;;;6.90;1.00;;;;;;5074022;28;20181;-70
2023/04/29 03:41:59;;;;;;;9.37;7.30;;;6.90;1.00;;;;;;5071603;28;20502;-69
2023/04/29 03:44:25;;;;;;;9.40;6.90;;;6.80;1.00;;;;;;5073966;28;20404;-69
2023/04/29 03:46:51;;;;;;;12.17;7.00;;;6.80;1.00;;;;;;5073513;28;20452;-69
2023/04/29 03:49:17;;;;;;;11.17;8.50;;;6.80;1.00;;;;;;5073859;28;20400;-69
2023/04/29 03:51:46;;;;;;;13.37;8.13;;;6.90;1.00;;;;;;5072831;28;20198;-69
2023/04/29 03:54:12;;;;;;;10.67;7.70;;;6.90;1.00;;;;;;5093533;28;20602;-69
2023/04/29 03:56:38;;;;;;;13.03;7.87;;;6.90;1.00;;;;;;5078122;28;20427;-70
2023/04/29 03:59:04;;;;;;;12.17;8.50;;;6.90;1.00;;;;;;5073599;28;20404;-70
2023/04/29 04:01:29;;;;;;;12.50;7.60;;;7.00;1.00;;;;;;5093222;28;20412;-69
2023/04/29 04:03:55;;;;;;;10.93;8.07;;;7.00;1.00;;;;;;5093804;28;20545;-70
2023/04/29 04:06:21;;;;;;;9.80;7.87;;;7.10;1.00;;;;;;5074993;28;20223;-70
2023/04/29 04:08:46;;;;;;;11.57;8.80;;;7.10;1.00;;;;;;5073681;28;20162;-69
2023/04/29 04:11:14;;;;;;;10.73;7.93;;;7.10;1.00;;;;;;5074305;28;20181;-69
2023/04/29 04:13:42;;;;;;;14.17;7.90;;;7.20;1.00;;;;;;5072987;28;20194;-69
2023/04/29 04:16:10;;;;;;;11.53;8.80;;;7.20;1.00;;;;;;5073027;28;20431;-70
2023/04/29 04:18:39;;;;;;;13.97;9.07;;;7.30;1.00;;;;;;5073588;28;20403;-69
2023/04/29 04:21:09;;;;;;;9.57;7.90;;;7.40;1.00;;;;;;5072652;28;20423;-69
2023/04/29 04:23:34;;;;;;;10.77;8.10;;;7.40;1.00;;;;;;5067333;28;20457;-69
2023/04/29 04:26:00;;;;;;;12.07;8.57;;;7.40;1.00;;;;;;5079968;28;20503;-69
2023/04/29 04:28:26;;;;;;;11.67;8.27;;;7.50;1.00;;;;;;5087153;28;20170;-69
2023/04/29 04:30:52;;;;;;;13.67;8.47;;;7.50;1.00;;;;;;5071042;28;20515;-69
2023/04/29 04:33:20;;;;;;;15.77;8.17;;;7.50;1.00;;;;;;5073259;28;20234;-70
2023/04/29 04:35:45;;;;;;;10.47;7.53;;;7.60;1.00;;;;;;5073712;28;20182;-69
2023/04/29 04:38:11;;;;;;;9.40;7.23;;;7.60;1.00;;;;;;5074025;28;20815;-69
2023/04/29 04:40:41;;;;;;;11.30;8.60;;;7.70;1.00;;;;;;5074304;28;20256;-69
2023/04/29 04:43:06;;;;;;;11.20;7.83;;;7.70;1.00;;;;;;5092075;28;20277;-70
2023/04/29 04:45:33;;;;;;;12.57;8.50;;;7.70;1.00;;;;;;5072356;28;20912;-69
2023/04/29 04:47:58;;;;;;;11.33;8.33;;;7.80;1.00;;;;;;5072784;28;20448;-69
2023/04/29 04:50:27;;;;;;;9.40;7.70;;;7.80;1.00;;;;;;5072460;28;20455;-69
2023/04/29 04:52:56;;;;;;;9.50;8.07;;;7.90;1.00;;;;;;5073490;28;20209;-69
2023/04/29 04:55:22;;;;;;;10.17;8.00;;;7.90;1.00;;;;;;5093220;28;20426;-69
2023/04/29 04:57:48;;;;;;;10.80;9.13;;;7.90;1.00;;;;;;5092950;28;20408;-68
2023/04/29 05:00:14;;;;;;;12.00;8.67;;;7.90;1.00;;;;;;5072172;28;20416;-69
2023/04/29 05:02:40;;;;;;;18.10;8.07;;;7.90;1.00;;;;;;5072938;28;20189;-69
2023/04/29 05:05:06;;;;;;;18.97;7.83;;;8.00;1.00;;;;;;5088655;28;20518;-69
2023/04/29 05:07:34;;;;;;;14.93;8.20;;;8.10;1.00;;;;;;5072588;28;20845;-69
2023/04/29 05:10:01;;;;;;;8.17;7.37;;;8.10;1.00;;;;;;5089517;28;20416;-70
2023/04/29 05:12:29;;;;;;;11.10;8.10;;;8.10;1.00;;;;;;5092493;28;20524;-70
2023/04/29 05:14:55;;;;;;;8.20;7.10;;;8.20;1.00;;;;;;5076597;28;20464;-69
2023/04/29 05:17:21;;;;;;;9.60;7.60;;;8.10;1.00;;;;;;5072973;28;20419;-69
2023/04/29 05:19:47;;;;;;;10.17;8.83;;;8.20;1.00;;;;;;5067615;28;20494;-69
2023/04/29 05:22:12;;;;;;;14.93;8.70;;;8.20;1.00;;;;;;5052028;28;20575;-69
2023/04/29 05:24:38;;;;;;;14.00;9.17;;;8.20;1.00;;;;;;5083674;28;20189;-69
2023/04/29 05:27:04;;;;;;;10.13;7.93;;;8.20;1.00;;;;;;5092599;28;20258;-69
2023/04/29 05:29:30;;;;;;;12.13;8.47;;;8.20;1.00;;;;;;5085243;28;20170;-70
2023/04/29 05:31:55;;;;;;;11.37;7.90;;;8.20;1.00;;;;;;5075439;28;20457;-69
2023/04/29 05:34:21;;;;;;;17.30;7.50;;;8.20;1.00;;;;;;5075380;28;20433;-69
2023/04/29 05:36:47;;;;;;;9.80;7.40;;;8.20;1.00;;;;;;5076610;28;20262;-68
2023/04/29 05:39:13;;;;;;;9.10;8.20;;;8.30;1.00;;;;;;5066165;28;20168;-69
2023/04/29 05:41:39;;;;;;;9.73;7.60;;;8.30;1.00;;;;;;5076740;28;20183;-69
2023/04/29 05:44:05;;;;;;;10.00;6.93;;;8.40;1.00;;;;;;5075854;28;20421;-68
2023/04/29 05:46:30;;;;;;;18.43;9.00;;;8.40;1.00;;;;;;5075630;28;20174;-69
2023/04/29 05:48:56;;;;;;;9.43;6.77;;;8.40;1.00;;;;;;5075688;28;20184;-69
2023/04/29 05:51:22;;;;;;;14.90;7.83;;;8.50;1.00;;;;;;5075314;28;20221;-69
2023/04/29 05:53:48;;;;;;;15.97;7.03;;;8.60;1.00;;;;;;5076139;28;20208;-70
2023/04/29 05:56:13;;;;;;;8.97;8.10;;;8.70;1.00;;;;;;5075642;28;20183;-69
2023/04/29 05:58:39;;;;;;;9.10;7.90;;;8.80;1.00;;;;;;5077227;28;20178;-69
2023/04/29 06:01:04;;;;;;;11.40;7.73;;;8.90;1.00;;;;;;5075058;28;20173;-69
2023/04/29 06:03:30;;;;;;;9.07;6.70;;;8.90;1.00;;;;;;5057852;28;20543;-69
2023/04/29 06:05:57;;;;;;;11.23;8.00;;;9.10;1.00;;;;;;5066393;28;20196;-69
2023/04/29 06:08:23;;;;;;;7.80;7.10;;;9.10;1.00;;;;;;5075845;28;20170;-69
2023/04/29 06:10:51;;;;;;;9.33;7.47;;;9.20;1.00;;;;;;5074179;28;20422;-69
2023/04/29 06:13:16;;;;;;;8.80;7.77;;;9.20;1.00;;;;;;5075842;28;20980;-70
2023/04/29 06:15:43;;;;;;;9.30;6.90;;;9.30;1.00;;;;;;5075427;28;20417;-74
2023/04/29 06:18:08;;;;;;;8.33;6.40;;;9.40;1.00;;;;;;5056192;28;20462;-71
2023/04/29 06:20:34;;;;;;;8.27;6.77;;;9.50;1.00;;;;;;5070821;28;20451;-75
2023/04/29 06:23:00;;;;;;;8.93;6.30;;;9.60;1.00;;;;;;5095179;28;20186;-69
2023/04/29 06:25:25;;;;;;;10.73;6.70;;;9.60;99.90;;;;;;5074669;28;20181;-68
2023/04/29 06:27:51;;;;;;;8.67;6.90;;;9.60;99.90;;;;;;5075371;28;20264;-69
2023/04/29 06:30:17;;;;;;;11.40;6.63;;;9.70;99.90;;;;;;5073814;28;20193;-68
2023/04/29 06:32:42;;;;;;;10.10;7.10;;;9.70;99.90;;;;;;5074899;28;20605;-68
2023/04/29 06:35:08;;;;;;;10.23;6.70;;;9.70;99.90;;;;;;5075482;28;20245;-68
2023/04/29 06:37:34;;;;;;;11.33;6.40;;;9.60;99.90;;;;;;5075399;28;20805;-68
2023/04/29 06:40:00;;;;;;;8.37;7.50;;;9.60;99.90;;;;;;5074498;28;20406;-68
2023/04/29 06:42:26;;;;;;;11.00;8.20;;;9.60;99.90;;;;;;5094038;28;20193;-68
2023/04/29 06:44:51;;;;;;;11.43;7.90;;;9.60;99.90;;;;;;5074454;28;20180;-68
2023/04/29 06:47:17;;;;;;;10.90;6.43;;;9.60;99.90;;;;;;5057404;28;20212;-69
2023/04/29 06:49:43;;;;;;;10.70;6.60;;;9.70;99.90;;;;;;5074623;28;20181;-69
2023/04/29 06:52:09;;;;;;;14.47;7.30;;;9.70;99.90;;;;;;5074216;28;20543;-69
2023/04/29 06:54:34;;;;;;;8.50;6.70;;;9.70;99.90;;;;;;5075210;28;20631;-68
2023/04/29 06:57:01;;;;;;;10.50;8.23;;;9.70;99.90;;;;;;5074970;28;20170;-68
2023/04/29 06:59:26;;;;;;;11.27;7.77;;;9.80;99.90;;;;;;5056462;28;20408;-69
2023/04/29 07:01:55;;;;;;;8.97;8.07;;;9.80;99.90;;;;;;5085381;28;20386;-69
2023/04/29 07:04:21;;;;;;;9.33;7.87;;;9.90;99.90;;;;;;5094935;28;20630;-69
2023/04/29 07:06:47;;;;;;;9.80;7.97;;;9.90;99.90;;;;;;5063505;28;20428;-69
2023/04/29 07:09:13;;;;;;;9.10;8.20;;;10.00;99.90;;;;;;5074351;28;20173;-69
2023/04/29 07:11:39;;;;;;;9.97;7.67;;;10.20;99.90;;;;;;5072489;28;20231;-69
2023/04/29 07:14:06;;;;;;;8.63;7.73;;;10.30;99.90;;;;;;5073081;28;20427;-68
2023/04/29 07:16:32;;;;;;;11.37;8.00;;;10.50;99.90;;;;;;5056033;28;20420;-69
2023/04/29 07:18:58;;;;;;;15.20;8.03;;;10.60;99.90;;;;;;5094694;28;20445;-68
2023/04/29 07:21:24;;;;;;;13.73;7.60;;;10.70;99.90;;;;;;5093145;28;20371;-69
2023/04/29 07:23:50;;;;;;;11.57;8.50;;;10.80;99.90;;;;;;5074482;28;20410;-69
2023/04/29 07:26:16;;;;;;;11.60;7.07;;;11.00;99.90;;;;;;5073906;28;20627;-69
2023/04/29 07:28:43;;;;;;;8.50;7.40;;;11.10;99.90;;;;;;5057071;28;20179;-69
2023/04/29 07:31:10;;;;;;;9.03;7.83;;;11.20;99.90;;;;;;5092080;28;20390;-68
2023/04/29 07:33:36;;;;;;;17.37;9.20;;;11.30;99.90;;;;;;5092529;28;20451;-67
2023/04/29 07:36:03;;;;;;;10.07;7.10;;;11.30;99.90;;;;;;5080917;28;20431;-68
2023/04/29 07:38:29;;;;;;;10.60;7.37;;;11.20;92.50;;;;;;5075846;28;20155;-69
2023/04/29 07:40:55;;;;;;;7.73;6.93;;;11.20;92.40;;;;;;5083007;28;20433;-68
2023/04/29 07:43:21;;;;;;;9.23;7.67;;;11.20;92.40;;;;;;5079967;28;20488;-69
2023/04/29 07:45:47;;;;;;;9.30;6.67;;;11.10;83.30;;;;;;5094313;28;20407;-69
2023/04/29 07:48:13;;;;;;;12.30;7.97;;;11.10;74.10;;;;;;5081515;28;20453;-69
2023/04/29 07:50:50;;;;;;;7.60;6.83;;;11.20;74.00;;;;;;5093970;28;20400;-69
2023/04/29 07:53:26;;;;;;;;;;;;;;;;;;;;;
2023/04/29 07:55:52;;;;;;;12.70;7.47;;;11.40;58.80;;;;;;5074025;28;20895;-69
2023/04/29 07:58:18;;;;;;;13.10;8.60;;;11.50;61.40;;;;;;5074439;28;20446;-69
2023/04/29 08:00:46;;;;;;;8.50;7.43;;;11.50;26.80;;;;;;5072727;28;20162;-69
2023/04/29 08:03:14;;;;;;;9.07;7.23;;;11.50;5.20;;;;;;5072911;28;20571;-69
2023/04/29 08:05:42;;;;;;;13.00;7.40;;;11.60;1.00;;;;;;5085213;28;20401;-69
2023/04/29 08:08:08;;;;;;;10.13;9.13;;;11.60;1.00;;;;;;5094080;28;20407;-69
2023/04/29 08:10:39;;;;;;;10.30;7.30;;;11.80;2.70;;;;;;5093101;28;20925;-69
2023/04/29 08:13:05;;;;;;;11.90;7.43;;;11.90;1.00;;;;;;5081767;28;20959;-69
2023/04/29 08:15:32;;;;;;;9.40;7.30;;;12.00;1.00;;;;;;5073409;28;20455;-68
2023/04/29 08:17:58;;;;;;;8.33;7.53;;;12.10;1.00;;;;;;5073419;28;20408;-69
2023/04/29 08:21:10;;;;;;;8.27;5.73;;;12.10;1.00;;;;;;5054664;28;21212;-69
2023/04/29 08:27:08;;;;;;;7.20;6.50;;;12.30;1.00;;;;;;4990473;28;20728;-69
2023/04/29 08:29:34;;;;;;;8.73;7.70;;;12.30;1.00;;;;;;4991083;28;20409;-69
2023/04/29 08:32:00;;;;;;;7.73;6.70;;;12.20;1.00;;;;;;5031844;28;20443;-69
2023/04/29 08:34:26;;;;;;;11.77;7.00;;;12.20;1.00;;;;;;5053539;28;20739;-69
2023/04/29 08:37:10;;;;;;;7.33;6.53;;;12.20;1.00;;;;;;5053301;28;20413;-69
2023/04/29 08:39:36;;;;;;;14.73;6.53;;;12.30;1.00;;;;;;5053830;28;20352;-69
2023/04/29 08:42:09;;;;;;;8.93;7.50;;;12.40;1.00;;;;;;5061755;28;20505;-69
2023/04/29 08:44:35;;;;;;;7.97;6.73;;;12.40;1.00;;;;;;5073226;28;20382;-69
2023/04/29 08:47:02;;;;;;;8.80;6.40;;;12.50;1.00;;;;;;5073062;28;20412;-69
2023/04/29 08:50:07;;;;;;;7.73;7.00;;;12.70;1.00;;;;;;5072572;28;20407;-69
2023/04/29 08:52:34;;;;;;;10.83;6.40;;;12.80;1.00;;;;;;5068098;28;20472;-70
2023/04/29 08:55:08;;;;;;;9.07;7.33;;;13.00;1.00;;;;;;5073286;28;20379;-69
2023/04/29 08:57:38;;;;;;;10.27;6.27;;;13.00;1.00;;;;;;5054491;28;20433;-69
2023/04/29 09:00:09;;;;;;;9.60;7.50;;;13.10;1.00;;;;;;5073060;28;20531;-69
2023/04/29 09:02:42;;;;;;;7.63;5.53;;;13.20;1.00;;;;;;5073668;28;20801;-69
2023/04/29 09:05:11;;;;;;;13.13;6.70;;;13.40;1.00;;;;;;5077476;28;20465;-70
2023/04/29 09:07:38;;;;;;;9.80;6.60;;;13.50;1.00;;;;;;5058541;28;20412;-69
2023/04/29 09:10:18;;;;;;;;;;;;;;;;;;;;;
2023/04/29 09:12:48;;;;;;;7.03;6.20;;;13.80;1.00;;;;;;5075867;28;21001;-70
2023/04/29 09:15:41;;;;;;;9.63;6.70;;;14.10;1.00;;;;;;5076933;28;20404;-70
2023/04/29 09:18:07;;;;;;;7.10;6.37;;;14.60;1.00;;;;;;5064569;28;20657;-70
2023/04/29 09:20:33;;;;;;;7.87;7.07;;;14.70;1.00;;;;;;5075615;28;20417;-70
2023/04/29 09:23:03;;;;;;;13.37;6.90;;;14.90;1.00;;;;;;5076819;28;20435;-70
2023/04/29 09:25:33;;;;;;;18.17;7.37;;;15.10;1.00;;;;;;5075380;28;20428;-70
2023/04/29 09:28:17;;;;;;;7.73;6.77;;;15.30;1.00;;;;;;5076387;28;20487;-70
2023/04/29 09:30:49;;;;;;;9.70;6.30;;;15.20;1.00;;;;;;5075591;28;20408;-71
2023/04/29 09:33:16;;;;;;;7.07;6.37;;;15.30;1.00;;;;;;5076573;28;20501;-70
2023/04/29 09:35:55;;;;;;;9.50;6.77;;;15.70;1.00;;;;;;5075638;28;20420;-70
2023/04/29 09:38:21;;;;;;;8.63;6.67;;;16.00;1.00;;;;;;5076662;28;20424;-70
2023/04/29 09:40:49;;;;;;;8.43;6.40;;;16.10;1.00;;;;;;5057575;28;20416;-70
2023/04/29 09:43:17;;;;;;;13.13;7.17;;;16.40;1.00;;;;;;5075902;28;20194;-71
2023/04/29 09:45:47;;;;;;;9.87;7.07;;;17.10;1.00;;;;;;5075942;28;20409;-70
2023/04/29 09:48:14;;;;;;;7.13;6.43;;;17.30;1.00;;;;;;5076253;28;20904;-70
2023/04/29 09:51:02;;;;;;;9.73;6.80;;;17.40;1.00;;;;;;5074352;28;20424;-69
2023/04/29 09:53:30;;;;;;;8.60;7.10;;;17.50;1.00;;;;;;5084680;28;20451;-71
2023/04/29 09:56:01;;;;;;;8.00;7.20;;;17.70;1.00;;;;;;5083087;28;20939;-70
2023/04/29 09:58:35;;;;;;;8.23;7.03;;;17.70;1.00;;;;;;5076114;28;20423;-71
2023/04/29 10:01:03;;;;;;;10.27;7.20;;;17.80;1.00;;;;;;5074915;28;20914;-70
2023/04/29 10:03:33;;;;;;;8.60;6.00;;;18.20;1.00;;;;;;5090990;28;20506;-71
2023/04/29 10:06:00;;;;;;;10.80;6.53;;;18.40;1.00;;;;;;5058233;28;20439;-71
2023/04/29 10:08:28;;;;;;;9.63;7.00;;;18.30;1.00;;;;;;5094924;28;20412;-69
2023/04/29 10:11:04;;;;;;;8.27;7.20;;;18.60;1.00;;;;;;5095137;28;20652;-71
2023/04/29 10:13:32;;;;;;;9.60;6.83;;;18.80;1.00;;;;;;5076277;28;20865;-70
2023/04/29 10:16:28;;;;;;;11.60;6.83;;;18.80;1.00;;;;;;5074861;28;20451;-70
2023/04/29 10:18:55;;;;;;;6.80;5.80;;;18.80;1.00;;;;;;5054380;28;20433;-71
2023/04/29 10:21:28;;;;;;;7.33;6.63;;;18.90;1.00;;;;;;5036691;28;20413;-70
2023/04/29 10:23:56;;;;;;;7.97;7.20;;;18.80;1.00;;;;;;5095986;28;20431;-71
2023/04/29 10:26:36;;;;;;;13.83;6.70;;;18.70;1.00;;;;;;5095468;28;20788;-71
2023/04/29 10:29:04;;;;;;;10.27;6.77;;;18.80;1.00;;;;;;5083297;28;20780;-70
2023/04/29 10:31:31;;;;;;;6.70;6.10;;;19.20;1.00;;;;;;5074620;28;20504;-70
2023/04/29 10:34:00;;;;;;;8.27;6.30;;;18.60;1.00;;;;;;5074547;28;20976;-71
2023/04/29 10:36:29;;;;;;;12.50;6.40;;;17.90;1.00;;;;;;5094948;28;20415;-70
2023/04/29 10:38:58;;;;;;;12.27;6.60;;;18.20;1.00;;;;;;5095387;28;20438;-69
2023/04/29 10:41:32;;;;;;;9.33;6.90;;;18.70;1.00;;;;;;5057232;28;20412;-71
2023/04/29 10:43:58;;;;;;;7.60;6.43;;;19.20;1.00;;;;;;5075172;28;20439;-70
2023/04/29 10:46:25;;;;;;;8.43;5.87;;;19.70;1.00;;;;;;5084184;28;20432;-70
2023/04/29 10:49:02;;;;;;;10.50;6.57;;;20.00;1.00;;;;;;5075031;28;20397;-71
2023/04/29 10:51:32;;;;;;;9.00;6.23;;;20.10;1.00;;;;;;5091491;28;20954;-70
2023/04/29 10:54:08;;;;;;;6.73;6.03;;;20.20;1.00;;;;;;5095137;28;20466;-71
2023/04/29 10:56:53;;;;;;;8.73;6.17;;;20.30;1.00;;;;;;5075531;28;20434;-71
2023/04/29 10:59:42;;;;;;;7.50;6.73;;;20.70;1.00;;;;;;5056698;28;20527;-70
2023/04/29 11:02:09;;;;;;;10.50;7.40;;;20.10;1.00;;;;;;5066925;28;20475;-70
2023/04/29 11:05:08;;;;;;;8.30;6.87;;;20.00;1.00;;;;;;5074728;28;20513;-70
2023/04/29 11:07:33;;;;;;;7.43;5.80;;;20.30;1.00;;;;;;5074506;28;20409;-70
2023/04/29 11:10:01;;;;;;;9.33;6.20;;;20.50;1.00;;;;;;5078233;28;20914;-71
2023/04/29 11:12:27;;;;;;;7.10;6.00;;;20.60;1.00;;;;;;5094130;28;20208;-71
2023/04/29 11:15:01;;;;;;;6.90;5.73;;;20.80;1.00;;;;;;5084820;28;20508;-71
2023/04/29 11:17:38;;;;;;;7.40;5.70;;;21.10;1.00;;;;;;5073805;28;20400;-70
2023/04/29 11:20:24;;;;;;;10.63;6.60;;;20.60;1.00;;;;;;5077519;28;20764;-71
2023/04/29 11:22:51;;;;;;;7.47;4.90;;;20.40;1.00;;;;;;5094150;28;20435;-71
2023/04/29 11:25:19;;;;;;;7.63;6.87;;;20.80;1.00;;;;;;5093545;28;20408;-71
2023/04/29 11:27:47;;;;;;;9.33;5.30;;;21.00;1.00;;;;;;5094733;28;20494;-70
2023/04/29 11:30:15;;;;;;;6.27;5.77;;;20.90;1.00;;;;;;5078489;28;20435;-72
2023/04/29 11:32:44;;;;;;;6.43;4.90;;;20.70;99.90;;;;;;5074348;28;20456;-70
2023/04/29 11:39:06;;;;;;;5.47;4.60;;;20.00;99.90;;;;;;5073678;28;20966;-71
2023/04/29 11:44:44;;;;;;;9.87;5.87;;;18.90;99.90;;;;;;5055461;28;20463;-71
2023/04/29 11:47:10;;;;;;;7.23;6.27;;;18.60;99.90;;;;;;5075092;28;20478;-70
2023/04/29 11:49:36;;;;;;;7.10;5.20;;;18.30;99.90;;;;;;5055807;28;20420;-71
2023/04/29 11:52:03;;;;;;;7.10;5.00;;;18.40;99.90;;;;;;5092335;28;20566;-70
2023/04/29 11:54:38;;;;;;;9.40;4.80;;;18.90;99.90;;;;;;5084556;28;20411;-70
2023/04/29 11:57:04;;;;;;;9.57;6.07;;;19.10;99.90;;;;;;5055074;28;20989;-70
2023/04/29 11:59:33;;;;;;;7.90;6.37;;;18.90;99.90;;;;;;5073643;28;20451;-71
2023/04/29 12:01:59;;;;;;;8.07;6.10;;;19.00;99.90;;;;;;5071731;28;20530;-70
2023/04/29 12:04:56;;;;;;;;;;;;;;;;;;;;;
2023/04/29 12:07:23;;;;;;;6.43;5.60;;;17.90;99.90;;;;;;5093315;28;20407;-72
2023/04/29 12:09:49;;;;;;;8.23;6.47;;;18.30;1.00;;;;;;5087905;28;20765;-74
2023/04/29 12:12:21;;;;;;;9.13;5.50;;;18.90;1.00;;;;;;5069042;28;20474;-71
2023/04/29 12:14:50;;;;;;;6.13;5.10;;;18.70;99.90;;;;;;5072481;28;20442;-73
2023/04/29 12:17:17;;;;;;;6.00;4.83;;;18.20;99.90;;;;;;5059476;28;20790;-76
2023/04/29 12:22:49;;;;;;;4.90;4.27;;;18.80;1.00;;;;;;5093341;28;20423;-69
2023/04/29 12:25:17;;;;;;;5.07;4.57;;;19.00;99.90;;;;;;5083144;28;20423;-74
2023/04/29 12:27:42;;;;;;;8.73;4.30;;;19.20;99.90;;;;;;5089002;28;20411;-70
2023/04/29 12:30:11;;;;;;;3.50;3.10;;;19.20;99.90;;;;;;5064493;28;20427;-75
2023/04/29 12:32:37;;;;;;;3.93;3.07;;;18.90;99.90;;;;;;5072945;28;20202;-76
2023/04/29 12:35:15;;;;;;;3.17;2.77;;;18.50;99.90;;;;;;5075912;28;20409;-74
2023/04/29 12:37:41;;;;;;;3.33;2.90;;;18.20;99.90;;;;;;5092684;28;20407;-73
2023/04/29 12:40:14;;;;;;;4.43;3.33;;;17.60;99.90;;;;;;5062967;28;20432;-72
2023/04/29 12:45:33;;;;;;;3.00;2.40;;;17.10;99.90;;;;;;4989434;28;20428;-69
2023/04/29 12:48:00;;;;;;;3.83;3.53;;;17.40;99.90;;;;;;5042866;28;21023;-69
2023/04/29 12:50:50;;;;;;;3.30;3.00;;;17.70;99.90;;;;;;5058513;28;20920;-68
2023/04/29 12:53:18;;;;;;;4.20;2.40;;;17.90;99.90;;;;;;5064332;28;20490;-68
2023/04/29 12:55:44;;;;;;;5.53;2.70;;;17.90;99.90;;;;;;5056718;28;20408;-70
2023/04/29 12:58:21;;;;;;;;;;;;;;;;;;;;;
2023/04/29 13:00:47;;;;;;;3.47;2.20;;;17.80;99.90;;;;;;5088952;28;20169;-78
2023/04/29 13:03:13;;;;;;;2.50;2.30;;;17.50;99.90;;;;;;5089728;28;20501;-72
2023/04/29 13:05:53;;;;;;;2.67;2.43;;;17.50;99.90;;;;;;5071881;28;20432;-71
2023/04/29 13:08:20;;;;;;;2.17;2.00;;;17.40;99.90;;;;;;5073082;28;20420;-71
2023/04/29 13:13:54;;;;;;;3.40;2.27;;;16.90;99.90;;;;;;5073684;28;20470;-70
2023/04/29 13:16:34;;;;;;;;;;;;;;;;;;;;;
2023/04/29 13:19:00;;;;;;;1.90;1.80;;;16.60;99.90;;;;;;5072858;28;20410;-71
2023/04/29 13:21:27;;;;;;;1.73;1.63;;;16.30;99.90;;;;;;5069413;28;20439;-70
2023/04/29 13:23:53;;;;;;;2.13;1.70;;;15.90;99.90;;;;;;5064001;28;20447;-70
2023/04/29 13:26:38;;;;;;;2.40;1.50;;;15.90;99.90;;;;;;5072676;28;20487;-70
2023/04/29 13:29:04;;;;;;;2.33;2.20;;;16.20;99.90;;;;;;5058185;28;20427;-70